Time;durP1;ratioP1;P1;durP2;ratioP2;P2;SDS_P1;SDS_P2;PMS_P1;PMS_P2;Temp;Humidity;BMP_temperature;BMP_pressure;BME280_temperature;BME280_humidity;BME280_pressure;Samples;Min_cycle;Max_cycle;Signal;HPM_P1;HPM_P2
2023/08/17 00:03:26;;;;;;;;;;;23.80;60.50;;;;;;10220152;28;93381;-49
2023/08/17 00:08:28;;;;;;;;;;;23.80;60.40;;;;;;10226026;28;94451;-48
2023/08/17 00:13:30;;;;;;;;;;;23.80;60.40;;;;;;10234333;28;93875;-47
2023/08/17 00:18:32;;;;;;;;;;;23.80;60.40;;;;;;10215027;28;93471;-50
2023/08/17 00:23:34;;;;;;;;;;;23.80;60.50;;;;;;10224451;28;97313;-46
2023/08/17 00:28:36;;;;;;;;;;;23.80;61.40;;;;;;10226568;28;93698;-47
2023/08/17 00:33:37;;;;;;;;;;;23.80;60.40;;;;;;10227068;28;93447;-47
2023/08/17 00:38:39;;;;;;;;;;;23.80;60.40;;;;;;10230703;28;93489;-49
2023/08/17 00:43:41;;;;;;;;;;;23.80;60.40;;;;;;10212176;28;94905;-46
2023/08/17 00:48:43;;;;;;;;;;;23.80;60.30;;;;;;10229244;28;93817;-46
2023/08/17 00:53:44;;;;;;;;;;;23.80;60.40;;;;;;10214520;28;94390;-46
2023/08/17 00:58:48;;;;;;;;;;;23.80;60.30;;;;;;10231639;28;93336;-49
2023/08/17 01:03:50;;;;;;;;;;;23.80;60.40;;;;;;10226209;28;94488;-46
2023/08/17 01:08:52;;;;;;;;;;;23.80;60.30;;;;;;10238919;28;93797;-50
2023/08/17 01:13:56;;;;;;;;;;;23.70;60.20;;;;;;10234681;28;95861;-47
2023/08/17 01:19:00;;;;;;;;;;;23.80;60.20;;;;;;10227216;28;94801;-51
2023/08/17 01:24:03;;;;;;;;;;;23.80;60.20;;;;;;10239420;28;93492;-48
2023/08/17 01:29:05;;;;;;;;;;;23.80;60.20;;;;;;10237768;28;94529;-47
2023/08/17 01:34:08;;;;;;;;;;;23.80;60.20;;;;;;10221214;28;94435;-47
2023/08/17 01:39:10;;;;;;;;;;;23.70;60.20;;;;;;10230590;28;93657;-46
2023/08/17 01:44:12;;;;;;;;;;;23.80;61.20;;;;;;10235346;28;94483;-46
2023/08/17 01:49:14;;;;;;;;;;;23.70;60.10;;;;;;10238145;28;93594;-45
2023/08/17 01:54:17;;;;;;;;;;;23.70;60.20;;;;;;10238073;28;93648;-50
2023/08/17 01:59:19;;;;;;;;;;;23.70;60.20;;;;;;10238500;28;93459;-47
2023/08/17 02:04:21;;;;;;;;;;;23.70;60.20;;;;;;10216568;28;96986;-47
2023/08/17 02:09:22;;;;;;;;;;;23.70;60.10;;;;;;10220360;28;94719;-49
2023/08/17 02:14:27;;;;;;;;;;;23.70;60.20;;;;;;10212460;28;94226;-46
2023/08/17 02:19:29;;;;;;;;;;;23.70;60.10;;;;;;10235946;28;94004;-50
2023/08/17 02:24:30;;;;;;;;;;;23.70;61.20;;;;;;10235042;28;93496;-73
2023/08/17 02:29:32;;;;;;;;;;;23.70;60.00;;;;;;10223908;28;93544;-46
2023/08/17 02:34:34;;;;;;;;;;;23.70;60.10;;;;;;10236025;28;93419;-50
2023/08/17 02:39:36;;;;;;;;;;;23.70;60.10;;;;;;10223900;28;92772;-50
2023/08/17 02:44:37;;;;;;;;;;;23.70;60.00;;;;;;10217414;28;94437;-46
2023/08/17 02:49:39;;;;;;;;;;;23.70;60.10;;;;;;10222065;28;94498;-49
2023/08/17 02:54:41;;;;;;;;;;;23.70;60.00;;;;;;10210505;28;95932;-49
2023/08/17 02:59:43;;;;;;;;;;;23.70;60.00;;;;;;10230779;28;93654;-50
2023/08/17 03:04:44;;;;;;;;;;;23.70;60.10;;;;;;10232341;28;93652;-48
2023/08/17 03:09:47;;;;;;;;;;;23.70;60.00;;;;;;10235645;28;93715;-51
2023/08/17 03:14:49;;;;;;;;;;;23.70;60.00;;;;;;10200312;28;93489;-49
2023/08/17 03:19:50;;;;;;;;;;;23.70;60.00;;;;;;10234977;28;94515;-47
2023/08/17 03:24:54;;;;;;;;;;;23.60;60.00;;;;;;10233962;28;94715;-47
2023/08/17 03:29:56;;;;;;;;;;;23.60;60.00;;;;;;10216682;28;93303;-46
2023/08/17 03:34:58;;;;;;;;;;;23.60;60.00;;;;;;10235147;28;95870;-48
2023/08/17 03:40:03;;;;;;;;;;;23.60;60.00;;;;;;10216138;28;94461;-46
2023/08/17 03:45:05;;;;;;;;;;;23.70;60.00;;;;;;10231765;28;96757;-46
2023/08/17 03:50:07;;;;;;;;;;;23.60;60.00;;;;;;10230780;28;93467;-55
2023/08/17 03:55:09;;;;;;;;;;;23.60;60.00;;;;;;10218989;28;93413;-46
2023/08/17 04:00:11;;;;;;;;;;;23.60;60.00;;;;;;10234068;28;94156;-50
2023/08/17 04:05:13;;;;;;;;;;;23.60;60.00;;;;;;10232837;28;93482;-49
2023/08/17 04:10:14;;;;;;;;;;;23.60;60.00;;;;;;10232004;28;94476;-46
2023/08/17 04:15:17;;;;;;;;;;;23.60;60.00;;;;;;10211888;28;94401;-47
2023/08/17 04:20:19;;;;;;;;;;;23.60;60.00;;;;;;10205998;28;93653;-47
2023/08/17 04:25:21;;;;;;;;;;;23.60;60.10;;;;;;10231391;28;93522;-45
2023/08/17 04:30:22;;;;;;;;;;;23.60;60.00;;;;;;10223899;28;94479;-46
2023/08/17 04:35:24;;;;;;;;;;;23.50;60.00;;;;;;10231605;28;97235;-46
2023/08/17 04:40:26;;;;;;;;;;;23.60;60.10;;;;;;10237772;28;94441;-48
2023/08/17 04:50:49;;;;;;;;;;;23.60;60.10;;;;;;10495671;22;95106;-47
2023/08/17 04:55:51;;;;;;;;;;;23.50;60.00;;;;;;10184158;28;94812;-52
2023/08/17 05:00:52;;;;;;;;;;;23.50;60.10;;;;;;10188565;28;94614;-52
2023/08/17 05:05:54;;;;;;;;;;;23.50;60.00;;;;;;10179255;28;94834;-52
2023/08/17 05:10:56;;;;;;;;;;;23.50;60.00;;;;;;10167482;28;92687;-52
2023/08/17 05:15:58;;;;;;;;;;;23.50;60.00;;;;;;10186143;28;94263;-50
2023/08/17 05:21:00;;;;;;;;;;;23.50;60.20;;;;;;10169997;28;94070;-49
2023/08/17 05:26:02;;;;;;;;;;;23.50;60.30;;;;;;10186708;28;97153;-48
2023/08/17 05:31:07;;;;;;;;;;;23.50;60.40;;;;;;10172224;28;93475;-50
2023/08/17 05:36:09;;;;;;;;;;;23.60;60.40;;;;;;10183229;28;93588;-49
2023/08/17 05:41:11;;;;;;;;;;;23.60;60.30;;;;;;10197930;28;92685;-50
2023/08/17 05:46:13;;;;;;;;;;;23.60;60.40;;;;;;10174092;28;94490;-47
2023/08/17 05:51:15;;;;;;;;;;;23.60;60.30;;;;;;10172239;28;93363;-52
2023/08/17 05:56:17;;;;;;;;;;;23.60;60.40;;;;;;10184002;28;94488;-51
2023/08/17 06:01:20;;;;;;;;;;;23.60;60.30;;;;;;10175853;28;93177;-49
2023/08/17 06:06:21;;;;;;;;;;;23.60;60.50;;;;;;10184148;28;92956;-48
2023/08/17 06:11:23;;;;;;;;;;;23.60;60.40;;;;;;10183757;28;93814;-51
2023/08/17 06:16:25;;;;;;;;;;;23.70;60.50;;;;;;10178985;28;96876;-50
2023/08/17 06:21:27;;;;;;;;;;;23.70;60.60;;;;;;10173150;28;94724;-52
2023/08/17 06:26:29;;;;;;;;;;;23.70;60.60;;;;;;10196055;28;93485;-51
2023/08/17 06:31:30;;;;;;;;;;;23.70;60.60;;;;;;10187569;28;94326;-49
2023/08/17 06:36:32;;;;;;;;;;;23.70;60.60;;;;;;10170098;28;93474;-47
2023/08/17 06:41:34;;;;;;;;;;;23.60;61.50;;;;;;10196717;28;93483;-45
2023/08/17 06:46:36;;;;;;;;;;;23.60;60.10;;;;;;10201261;28;94390;-48
2023/08/17 06:51:39;;;;;;;;;;;23.50;60.10;;;;;;10180323;28;94338;-50
2023/08/17 06:56:41;;;;;;;;;;;23.50;60.00;;;;;;10186868;28;94503;-47
2023/08/17 07:01:42;;;;;;;;;;;23.40;60.30;;;;;;10205781;28;93488;-46
2023/08/17 07:06:44;;;;;;;;;;;23.40;60.00;;;;;;10174748;28;95939;-50
2023/08/17 07:11:46;;;;;;;;;;;23.40;59.80;;;;;;10189783;28;94196;-51
2023/08/17 07:16:48;;;;;;;;;;;23.30;60.00;;;;;;10180256;28;93296;-50
2023/08/17 07:21:51;;;;;;;;;;;23.20;59.70;;;;;;10171345;28;93790;-48
2023/08/17 07:26:53;;;;;;;;;;;23.20;59.60;;;;;;10179973;28;93484;-47
2023/08/17 07:31:58;;;;;;;;;;;23.10;60.00;;;;;;10178025;28;93514;-47
2023/08/17 07:37:00;;;;;;;;;;;23.10;59.80;;;;;;10184577;28;94294;-45
2023/08/17 07:42:01;;;;;;;;;;;23.10;59.70;;;;;;10167127;28;93646;-48
2023/08/17 07:47:03;;;;;;;;;;;23.10;59.80;;;;;;10181462;28;93835;-46
2023/08/17 07:52:05;;;;;;;;;;;23.10;60.00;;;;;;10157761;28;94185;-46
2023/08/17 07:57:07;;;;;;;;;;;23.20;59.90;;;;;;10177974;28;96844;-47
2023/08/17 08:02:09;;;;;;;;;;;23.20;59.80;;;;;;10170922;28;94351;-50
2023/08/17 08:07:11;;;;;;;;;;;23.30;59.90;;;;;;10179321;28;94444;-46
2023/08/17 08:12:13;;;;;;;;;;;23.40;59.70;;;;;;10169163;28;94444;-46
2023/08/17 08:17:15;;;;;;;;;;;23.40;59.70;;;;;;10176624;28;93427;-57
2023/08/17 08:22:17;;;;;;;;;;;23.40;59.60;;;;;;10178665;28;94481;-48
2023/08/17 08:27:19;;;;;;;;;;;23.50;59.70;;;;;;10186026;28;94092;-49
2023/08/17 08:32:21;;;;;;;;;;;23.50;59.70;;;;;;10168006;28;92501;-50
2023/08/17 08:37:23;;;;;;;;;;;23.50;59.70;;;;;;10170862;28;95726;-48
2023/08/17 08:42:25;;;;;;;;;;;23.50;59.90;;;;;;10183392;28;94647;-50
2023/08/17 08:47:27;;;;;;;;;;;23.50;59.80;;;;;;10164660;28;97264;-46
2023/08/17 08:52:40;;;;;;;;;;;23.60;59.80;;;;;;10186187;28;94603;-47
2023/08/17 08:57:42;;;;;;;;;;;23.60;59.80;;;;;;10168605;28;94139;-47
2023/08/17 09:02:45;;;;;;;;;;;23.60;59.80;;;;;;10179760;28;93380;-48
2023/08/17 09:07:48;;;;;;;;;;;23.60;59.80;;;;;;10158367;28;94787;-48
2023/08/17 09:12:50;;;;;;;;;;;23.70;59.80;;;;;;10179290;28;93334;-50
2023/08/17 09:17:53;;;;;;;;;;;23.70;59.80;;;;;;10180834;28;94192;-48
2023/08/17 09:22:58;;;;;;;;;;;23.70;59.70;;;;;;10192020;28;94369;-49
2023/08/17 09:28:06;;;;;;;;;;;23.70;59.70;;;;;;10167840;28;94494;-47
2023/08/17 09:33:14;;;;;;;;;;;23.70;59.70;;;;;;10199930;28;94614;-61
2023/08/17 09:38:16;;;;;;;;;;;23.80;59.80;;;;;;10172320;28;96900;-48
2023/08/17 09:43:18;;;;;;;;;;;23.80;59.80;;;;;;10177708;28;93466;-47
2023/08/17 09:48:20;;;;;;;;;;;23.80;59.80;;;;;;10165907;28;94067;-51
2023/08/17 09:53:22;;;;;;;;;;;23.80;59.80;;;;;;10201552;28;94813;-46
2023/08/17 09:58:23;;;;;;;;;;;23.80;59.80;;;;;;10209914;28;95102;-49
2023/08/17 10:03:36;;;;;;;;;;;23.80;59.80;;;;;;10198751;28;94595;-50
2023/08/17 10:08:49;;;;;;;;;;;23.80;59.90;;;;;;10185052;28;94259;-49
2023/08/17 10:13:51;;;;;;;;;;;23.70;59.80;;;;;;10198514;28;93375;-46
2023/08/17 10:19:13;;;;;;;;;;;23.70;59.80;;;;;;10184522;28;93585;-46
2023/08/17 10:24:17;;;;;;;;;;;23.70;59.70;;;;;;10185789;28;94926;-49
2023/08/17 10:29:20;;;;;;;;;;;23.70;59.80;;;;;;10205356;28;96643;-50
2023/08/17 10:34:22;;;;;;;;;;;23.70;60.00;;;;;;10168648;28;94080;-47
2023/08/17 10:39:26;;;;;;;;;;;23.70;59.80;;;;;;10179588;28;94500;-47
2023/08/17 10:44:47;;;;;;;;;;;23.70;59.90;;;;;;10198210;28;94861;-50
2023/08/17 10:49:55;;;;;;;;;;;23.70;59.90;;;;;;10203488;28;94129;-49
2023/08/17 10:54:59;;;;;;;;;;;23.60;60.00;;;;;;10183355;28;94705;-48
2023/08/17 11:00:07;;;;;;;;;;;23.60;60.00;;;;;;10167320;28;93387;-49
2023/08/17 11:05:16;;;;;;;;;;;23.70;60.00;;;;;;10180042;28;112005;-54
2023/08/17 11:10:19;;;;;;;;;;;23.70;60.10;;;;;;10196835;28;94689;-54
2023/08/17 11:15:21;;;;;;;;;;;23.70;60.10;;;;;;10174587;28;94446;-48
2023/08/17 11:20:23;;;;;;;;;;;23.70;60.10;;;;;;10180454;28;97048;-52
2023/08/17 11:25:26;;;;;;;;;;;23.60;61.10;;;;;;10185680;28;94203;-47
2023/08/17 11:30:34;;;;;;;;;;;23.60;60.10;;;;;;10185118;28;94911;-48
2023/08/17 11:35:36;;;;;;;;;;;23.70;60.20;;;;;;10179056;28;94436;-48
2023/08/17 11:40:38;;;;;;;;;;;23.70;60.10;;;;;;10183713;28;94050;-56
2023/08/17 11:45:41;;;;;;;;;;;23.70;60.10;;;;;;10177419;28;93542;-49
2023/08/17 11:50:43;;;;;;;;;;;23.70;60.00;;;;;;10188943;28;94535;-51
2023/08/17 11:55:45;;;;;;;;;;;23.70;60.30;;;;;;10184165;28;93682;-48
2023/08/17 12:00:47;;;;;;;;;;;23.70;60.40;;;;;;10176209;28;92623;-49
2023/08/17 12:05:50;;;;;;;;;;;23.70;60.50;;;;;;10179055;28;93773;-54
2023/08/17 12:10:52;;;;;;;;;;;23.70;60.40;;;;;;10180655;28;97184;-54
2023/08/17 12:15:54;;;;;;;;;;;23.70;60.40;;;;;;10191067;28;94586;-55
2023/08/17 12:20:56;;;;;;;;;;;23.70;60.40;;;;;;10181014;28;92937;-48
2023/08/17 12:25:58;;;;;;;;;;;23.70;60.40;;;;;;10178877;28;93495;-46
2023/08/17 12:31:00;;;;;;;;;;;23.70;60.40;;;;;;10191817;28;94932;-50
2023/08/17 12:36:04;;;;;;;;;;;23.70;60.40;;;;;;10181256;28;94616;-51
2023/08/17 12:41:05;;;;;;;;;;;23.70;60.40;;;;;;10184986;28;94528;-50
2023/08/17 12:46:08;;;;;;;;;;;23.60;60.40;;;;;;10183051;28;92791;-47
2023/08/17 12:51:10;;;;;;;;;;;23.70;60.50;;;;;;10171030;28;94681;-46
2023/08/17 12:56:12;;;;;;;;;;;23.70;60.40;;;;;;10188509;28;94454;-52
2023/08/17 13:01:14;;;;;;;;;;;23.60;60.40;;;;;;10184906;28;96627;-48
2023/08/17 13:06:16;;;;;;;;;;;23.60;60.40;;;;;;10172318;28;94300;-47
2023/08/17 13:11:17;;;;;;;;;;;23.60;60.60;;;;;;10191061;28;93445;-47
2023/08/17 13:16:22;;;;;;;;;;;23.60;60.70;;;;;;10179718;28;94859;-49
2023/08/17 13:21:24;;;;;;;;;;;23.60;60.70;;;;;;10185961;28;94442;-48
2023/08/17 13:26:26;;;;;;;;;;;23.60;60.90;;;;;;10186110;28;95172;-44
2023/08/17 13:31:27;;;;;;;;;;;23.60;60.90;;;;;;10194462;28;93632;-46
2023/08/17 13:36:29;;;;;;;;;;;23.60;61.10;;;;;;10187576;28;92774;-44
2023/08/17 13:41:31;;;;;;;;;;;23.60;61.10;;;;;;10189116;28;94394;-44
2023/08/17 13:46:32;;;;;;;;;;;23.60;61.10;;;;;;10197153;28;93769;-48
2023/08/17 13:51:34;;;;;;;;;;;23.50;61.20;;;;;;10189674;28;95913;-49
2023/08/17 13:56:36;;;;;;;;;;;23.50;61.30;;;;;;10183289;28;93614;-46
2023/08/17 14:01:39;;;;;;;;;;;23.50;61.30;;;;;;10163840;28;93528;-47
2023/08/17 14:06:41;;;;;;;;;;;23.50;61.50;;;;;;10181936;28;94694;-49
2023/08/17 14:11:42;;;;;;;;;;;23.50;61.40;;;;;;10183240;28;93983;-50
2023/08/17 14:16:44;;;;;;;;;;;23.50;61.40;;;;;;10182563;28;95446;-48
2023/08/17 14:21:46;;;;;;;;;;;23.50;61.50;;;;;;10161388;28;93384;-49
2023/08/17 14:26:48;;;;;;;;;;;23.50;61.60;;;;;;10177409;28;92885;-49
2023/08/17 14:31:50;;;;;;;;;;;23.50;61.60;;;;;;10168448;28;92796;-50
2023/08/17 14:36:56;;;;;;;;;;;23.40;61.60;;;;;;10179926;28;93680;-47
2023/08/17 14:41:58;;;;;;;;;;;23.40;61.80;;;;;;10176759;28;95887;-48
2023/08/17 14:47:00;;;;;;;;;;;23.40;61.90;;;;;;10170037;28;94773;-47
2023/08/17 14:52:02;;;;;;;;;;;23.30;61.90;;;;;;10174940;28;93367;-48
2023/08/17 14:57:04;;;;;;;;;;;23.40;62.00;;;;;;10180462;28;93067;-46
2023/08/17 15:02:06;;;;;;;;;;;23.40;62.00;;;;;;10204964;28;94001;-53
2023/08/17 15:07:11;;;;;;;;;;;23.40;61.90;;;;;;10191952;28;94330;-51
2023/08/17 15:12:14;;;;;;;;;;;23.40;61.90;;;;;;10183146;28;94514;-51
2023/08/17 15:17:15;;;;;;;;;;;23.40;62.00;;;;;;10155960;28;91994;-50
2023/08/17 15:22:18;;;;;;;;;;;23.40;62.10;;;;;;10155936;28;93409;-52
2023/08/17 15:27:20;;;;;;;;;;;23.30;62.20;;;;;;10158457;28;93437;-48
2023/08/17 15:32:22;;;;;;;;;;;23.30;62.20;;;;;;10176703;28;95863;-51
2023/08/17 15:37:24;;;;;;;;;;;23.30;62.30;;;;;;10181709;28;94768;-48
2023/08/17 15:42:26;;;;;;;;;;;23.30;62.30;;;;;;10184553;28;94920;-49
2023/08/17 15:47:28;;;;;;;;;;;23.30;62.40;;;;;;10176047;28;94188;-49
2023/08/17 15:52:30;;;;;;;;;;;23.30;62.40;;;;;;10187307;28;92740;-46
2023/08/17 15:57:32;;;;;;;;;;;23.30;62.50;;;;;;10190760;28;93018;-46
2023/08/17 16:02:34;;;;;;;;;;;23.30;62.60;;;;;;10187913;28;93804;-48
2023/08/17 16:07:36;;;;;;;;;;;23.30;62.80;;;;;;10194654;28;94113;-48
2023/08/17 16:12:38;;;;;;;;;;;23.20;62.90;;;;;;10196177;28;94055;-46
2023/08/17 16:17:44;;;;;;;;;;;23.30;63.00;;;;;;10218354;28;93658;-50
2023/08/17 16:22:47;;;;;;;;;;;23.30;63.10;;;;;;10153683;28;96810;-50
2023/08/17 16:27:49;;;;;;;;;;;23.40;63.40;;;;;;10189689;28;93856;-47
2023/08/17 16:32:51;;;;;;;;;;;23.40;66.20;;;;;;10176944;28;93482;-50
2023/08/17 16:37:53;;;;;;;;;;;23.50;70.60;;;;;;10189324;28;93828;-50
2023/08/17 16:42:55;;;;;;;;;;;23.70;71.80;;;;;;10200993;28;93447;-49
2023/08/17 16:48:02;;;;;;;;;;;23.80;69.70;;;;;;10189075;28;93858;-47
2023/08/17 16:53:04;;;;;;;;;;;23.80;68.30;;;;;;10185874;28;94072;-50
2023/08/17 16:58:06;;;;;;;;;;;23.80;66.90;;;;;;10189195;28;93395;-50
2023/08/17 17:03:09;;;;;;;;;;;23.80;66.20;;;;;;10182154;28;93905;-50
2023/08/17 17:08:11;;;;;;;;;;;23.80;65.80;;;;;;10174898;28;93951;-48
2023/08/17 17:13:12;;;;;;;;;;;23.70;65.40;;;;;;10175360;28;97037;-47
2023/08/17 17:18:14;;;;;;;;;;;23.70;65.20;;;;;;10178356;28;93922;-49
2023/08/17 17:23:16;;;;;;;;;;;23.70;65.10;;;;;;10181674;28;94880;-46
2023/08/17 17:28:18;;;;;;;;;;;23.60;65.00;;;;;;10176032;28;93525;-44
2023/08/17 17:33:20;;;;;;;;;;;23.60;64.90;;;;;;10199911;28;94343;-46
2023/08/17 17:38:22;;;;;;;;;;;23.60;64.90;;;;;;10190636;28;93324;-48
2023/08/17 17:43:24;;;;;;;;;;;23.60;64.90;;;;;;10197424;28;94442;-47
2023/08/17 17:48:26;;;;;;;;;;;23.50;64.80;;;;;;10183866;28;92135;-50
2023/08/17 17:53:28;;;;;;;;;;;23.50;64.80;;;;;;10180091;28;95028;-46
2023/08/17 17:58:32;;;;;;;;;;;23.50;64.80;;;;;;10195204;28;93949;-50
2023/08/17 18:03:33;;;;;;;;;;;23.50;64.80;;;;;;10190778;28;96795;-50
2023/08/17 18:08:38;;;;;;;;;;;23.50;64.70;;;;;;10186132;28;94435;-48
2023/08/17 18:13:40;;;;;;;;;;;23.50;64.80;;;;;;10195010;28;92988;-51
2023/08/17 18:18:42;;;;;;;;;;;23.50;64.80;;;;;;10170295;28;93568;-52
2023/08/17 18:23:44;;;;;;;;;;;23.50;64.70;;;;;;10158994;28;94916;-50
2023/08/17 18:28:46;;;;;;;;;;;23.40;64.70;;;;;;10178069;28;93545;-50
2023/08/17 18:33:47;;;;;;;;;;;23.50;64.60;;;;;;10161728;28;94395;-51
2023/08/17 18:38:49;;;;;;;;;;;23.50;64.70;;;;;;10201452;28;93192;-50
2023/08/17 18:43:51;;;;;;;;;;;23.50;64.70;;;;;;10182718;28;94199;-49
2023/08/17 18:48:53;;;;;;;;;;;23.50;64.60;;;;;;10171950;28;94420;-47
2023/08/17 18:53:55;;;;;;;;;;;23.50;64.60;;;;;;10191708;28;96985;-51
2023/08/17 18:58:57;;;;;;;;;;;23.50;64.60;;;;;;10167711;28;94390;-50
2023/08/17 19:03:59;;;;;;;;;;;23.50;64.70;;;;;;10187673;28;94209;-47
2023/08/17 19:09:03;;;;;;;;;;;23.50;64.90;;;;;;10169845;28;94449;-55
2023/08/17 19:14:06;;;;;;;;;;;23.50;65.00;;;;;;10167216;28;93671;-56
2023/08/17 19:19:09;;;;;;;;;;;23.50;65.10;;;;;;10172773;28;93474;-56
2023/08/17 19:24:11;;;;;;;;;;;23.50;65.00;;;;;;10164212;28;93419;-56
2023/08/17 19:29:12;;;;;;;;;;;23.40;64.80;;;;;;10177184;28;94152;-56
2023/08/17 19:34:14;;;;;;;;;;;23.40;64.90;;;;;;10182914;28;93973;-54
2023/08/17 19:39:16;;;;;;;;;;;23.50;65.00;;;;;;10182054;28;95053;-55
2023/08/17 19:44:18;;;;;;;;;;;23.40;65.00;;;;;;10177062;28;97048;-56
2023/08/17 19:49:19;;;;;;;;;;;23.50;65.10;;;;;;10186631;28;93348;-56
2023/08/17 19:54:21;;;;;;;;;;;23.50;65.10;;;;;;10179051;28;94542;-56
2023/08/17 19:59:23;;;;;;;;;;;23.50;65.00;;;;;;10176464;28;93504;-56
2023/08/17 20:04:25;;;;;;;;;;;23.50;65.00;;;;;;10172024;28;94589;-56
2023/08/17 20:09:26;;;;;;;;;;;23.50;65.10;;;;;;10194543;28;93607;-56
2023/08/17 20:14:29;;;;;;;;;;;23.50;65.10;;;;;;10194284;28;93591;-56
2023/08/17 20:19:32;;;;;;;;;;;23.60;65.10;;;;;;10167855;28;92598;-56
2023/08/17 20:24:34;;;;;;;;;;;23.60;65.10;;;;;;10177685;28;93511;-55
2023/08/17 20:29:35;;;;;;;;;;;23.60;65.10;;;;;;10174327;28;94121;-55
2023/08/17 20:34:37;;;;;;;;;;;23.60;65.00;;;;;;10200834;28;96554;-55
2023/08/17 20:39:40;;;;;;;;;;;23.60;64.90;;;;;;10204478;28;94442;-55
2023/08/17 20:44:42;;;;;;;;;;;23.50;64.90;;;;;;10176900;28;93649;-54
2023/08/17 20:49:44;;;;;;;;;;;23.50;64.90;;;;;;10181838;28;94017;-56
2023/08/17 20:54:47;;;;;;;;;;;23.50;64.80;;;;;;10182251;28;94451;-56
2023/08/17 20:59:49;;;;;;;;;;;23.50;64.80;;;;;;10155134;28;94257;-56
2023/08/17 21:04:51;;;;;;;;;;;23.50;65.70;;;;;;10187092;28;94414;-55
2023/08/17 21:09:53;;;;;;;;;;;23.50;64.70;;;;;;10179059;28;94100;-56
2023/08/17 21:14:57;;;;;;;;;;;23.40;64.60;;;;;;10174558;28;94555;-56
2023/08/17 21:19:58;;;;;;;;;;;23.50;64.60;;;;;;10186588;28;93631;-56
2023/08/17 21:25:00;;;;;;;;;;;23.40;64.50;;;;;;10174828;28;96997;-55
2023/08/17 21:30:03;;;;;;;;;;;23.40;64.50;;;;;;10190125;28;93458;-55
2023/08/17 21:35:05;;;;;;;;;;;23.40;64.40;;;;;;10169178;28;94581;-55
2023/08/17 21:40:08;;;;;;;;;;;23.40;64.40;;;;;;10193569;28;93483;-55
2023/08/17 21:45:10;;;;;;;;;;;23.40;64.30;;;;;;10175033;28;94863;-55
2023/08/17 21:50:11;;;;;;;;;;;23.40;64.30;;;;;;10177403;28;93803;-57
2023/08/17 21:55:14;;;;;;;;;;;23.40;64.20;;;;;;10188423;28;94422;-57
2023/08/17 22:00:16;;;;;;;;;;;23.40;64.20;;;;;;10179780;28;92847;-58
2023/08/17 22:05:17;;;;;;;;;;;23.40;64.20;;;;;;10200592;28;94567;-56
2023/08/17 22:10:22;;;;;;;;;;;23.40;64.10;;;;;;10184123;28;94005;-55
2023/08/17 22:15:24;;;;;;;;;;;23.30;64.10;;;;;;10176694;28;95833;-56
2023/08/17 22:20:26;;;;;;;;;;;23.30;63.90;;;;;;10185232;28;94452;-55
2023/08/17 22:25:28;;;;;;;;;;;23.40;64.00;;;;;;10186717;28;93712;-56
2023/08/17 22:30:30;;;;;;;;;;;23.30;63.90;;;;;;10166476;28;94377;-56
2023/08/17 22:35:32;;;;;;;;;;;23.40;63.90;;;;;;10181985;28;93450;-56
2023/08/17 22:40:33;;;;;;;;;;;23.40;63.90;;;;;;10188300;28;93775;-56
2023/08/17 22:45:35;;;;;;;;;;;23.40;63.80;;;;;;10177383;28;94455;-56
2023/08/17 22:50:37;;;;;;;;;;;23.40;63.90;;;;;;10179468;28;92225;-55
2023/08/17 22:55:40;;;;;;;;;;;23.40;63.70;;;;;;10180323;28;93738;-56
2023/08/17 23:00:41;;;;;;;;;;;23.40;63.70;;;;;;10200543;28;94423;-56
2023/08/17 23:05:44;;;;;;;;;;;23.40;63.70;;;;;;10177081;28;96159;-55
2023/08/17 23:10:46;;;;;;;;;;;23.30;63.70;;;;;;10180684;28;93489;-56
2023/08/17 23:15:47;;;;;;;;;;;23.30;63.50;;;;;;10181608;28;93482;-56
2023/08/17 23:20:50;;;;;;;;;;;23.40;63.60;;;;;;10181094;28;93792;-56
2023/08/17 23:25:52;;;;;;;;;;;23.30;63.50;;;;;;10191794;28;94430;-56
2023/08/17 23:30:57;;;;;;;;;;;23.30;63.50;;;;;;10200427;28;94677;-56
2023/08/17 23:35:58;;;;;;;;;;;23.40;63.50;;;;;;10175210;28;94499;-55
2023/08/17 23:41:00;;;;;;;;;;;23.30;63.50;;;;;;10180839;28;93506;-56
2023/08/17 23:46:02;;;;;;;;;;;23.40;63.40;;;;;;10179670;28;94315;-56
2023/08/17 23:51:04;;;;;;;;;;;23.40;63.30;;;;;;10192566;28;94980;-56
2023/08/17 23:56:06;;;;;;;;;;;23.40;63.30;;;;;;10164879;28;97171;-56
